createdAt,value
2022-09-06T00:00:09.463Z,25.955
2022-09-06T00:01:09.338Z,25.915
2022-09-06T00:02:09.619Z,25.889
2022-09-06T00:03:08.930Z,25.856
2022-09-06T00:04:13.069Z,25.833
2022-09-06T00:05:09.291Z,25.8158
2022-09-06T00:06:09.172Z,25.78
2022-09-06T00:07:08.765Z,25.78
2022-09-06T00:08:09.623Z,25.79
2022-09-06T00:09:08.423Z,25.785
2022-09-06T00:10:09.441Z,25.77
2022-09-06T00:11:09.295Z,25.816
2022-09-06T00:12:11.779Z,25.833
2022-09-06T00:13:09.043Z,25.795
2022-09-06T00:14:08.934Z,25.75
2022-09-06T00:15:11.726Z,25.705
2022-09-06T00:16:09.538Z,25.655
2022-09-06T00:17:12.323Z,25.6258
2022-09-06T00:18:08.424Z,25.5981
2022-09-06T00:19:08.539Z,25.5415
2022-09-06T00:20:08.885Z,25.5327
2022-09-06T00:21:09.823Z,25.5092
2022-09-06T00:22:08.786Z,25.46
2022-09-06T00:23:08.484Z,25.429
2022-09-06T00:24:08.367Z,25.3892
2022-09-06T00:25:08.797Z,25.3736
2022-09-06T00:26:09.089Z,25.347
2022-09-06T00:27:08.471Z,25.305
2022-09-06T00:28:08.659Z,25.265
2022-09-06T00:29:08.805Z,25.245
2022-09-06T00:30:11.933Z,25.24
2022-09-06T00:31:09.265Z,25.23
2022-09-06T00:32:11.604Z,25.199
2022-09-06T00:33:09.167Z,25.182
2022-09-06T00:34:08.772Z,25.166
2022-09-06T00:35:09.836Z,25.096
2022-09-06T00:36:12.461Z,25.02
2022-09-06T00:37:09.459Z,25.055
2022-09-06T00:38:08.530Z,25.03
2022-09-06T00:39:08.242Z,25.03
2022-09-06T00:40:08.527Z,25.015
2022-09-06T00:41:08.525Z,25.035
2022-09-06T00:42:09.345Z,25.06
2022-09-06T00:43:11.977Z,25.055
2022-09-06T00:44:08.043Z,25.08
2022-09-06T00:45:09.357Z,25.03
2022-09-06T00:46:09.971Z,25.005
2022-09-06T00:47:09.222Z,24.945
2022-09-06T00:48:08.904Z,24.93
2022-09-06T00:49:08.559Z,24.925
2022-09-06T00:50:08.646Z,24.895
2022-09-06T00:51:09.413Z,24.861
2022-09-06T00:52:09.243Z,24.839
2022-09-06T00:53:08.515Z,24.8
2022-09-06T00:54:10.186Z,24.79
2022-09-06T00:55:08.965Z,24.785
2022-09-06T00:56:12.248Z,24.76
2022-09-06T00:57:09.785Z,24.765
2022-09-06T00:58:11.818Z,24.74
2022-09-06T00:59:08.438Z,24.74
2022-09-06T01:00:12.726Z,24.75
2022-09-06T01:01:09.611Z,24.76
2022-09-06T01:02:08.951Z,24.715
2022-09-06T01:03:08.466Z,24.6891
2022-09-06T01:04:08.550Z,24.632
2022-09-06T01:05:09.390Z,24.605
2022-09-06T01:06:08.816Z,24.6
2022-09-06T01:07:11.356Z,24.6
2022-09-06T01:08:12.534Z,24.595
2022-09-06T01:09:08.318Z,24.575
2022-09-06T01:10:09.580Z,24.6
2022-09-06T01:11:09.052Z,24.6
2022-09-06T01:12:09.581Z,24.626
2022-09-06T01:13:09.619Z,24.638
2022-09-06T01:14:07.620Z,24.69
2022-09-06T01:15:09.392Z,24.715
2022-09-06T01:16:08.790Z,24.75
2022-09-06T01:17:11.820Z,24.745
2022-09-06T01:18:09.599Z,24.74
2022-09-06T01:19:08.700Z,24.755
2022-09-06T01:20:09.350Z,24.765
2022-09-06T01:21:08.890Z,24.795
2022-09-06T01:22:09.203Z,24.833
2022-09-06T01:23:12.131Z,24.775
2022-09-06T01:24:08.291Z,24.725
2022-09-06T01:25:09.385Z,24.6891
2022-09-06T01:26:09.766Z,24.649
2022-09-06T01:27:09.549Z,24.66
2022-09-06T01:28:08.895Z,24.655
2022-09-06T01:29:09.532Z,24.637
2022-09-06T01:30:09.188Z,24.59
2022-09-06T01:31:08.786Z,24.525
2022-09-06T01:32:09.980Z,24.46
2022-09-06T01:33:09.281Z,24.405
2022-09-06T01:34:08.186Z,24.3216
2022-09-06T01:35:09.377Z,24.275
2022-09-06T01:36:08.652Z,24.23
2022-09-06T01:37:10.600Z,24.1783
2022-09-06T01:38:08.624Z,24.137
2022-09-06T01:39:07.777Z,24.085
2022-09-06T01:40:09.227Z,24.055
2022-09-06T01:41:09.167Z,24.03
2022-09-06T01:42:09.272Z,23.97
2022-09-06T01:43:10.943Z,23.925
2022-09-06T01:44:08.099Z,23.856
2022-09-06T01:45:09.514Z,23.765
2022-09-06T01:46:08.814Z,23.693
2022-09-06T01:47:11.904Z,23.633
2022-09-06T01:48:08.915Z,23.573
2022-09-06T01:49:08.098Z,23.5109
2022-09-06T01:50:09.421Z,23.449
2022-09-06T01:51:09.570Z,23.379
2022-09-06T01:52:08.830Z,23.306
2022-09-06T01:53:09.712Z,23.231
2022-09-06T01:54:08.176Z,23.1772
2022-09-06T01:55:08.358Z,23.1
2022-09-06T01:56:11.575Z,23.0415
2022-09-06T01:57:09.147Z,23.0163
2022-09-06T01:58:11.937Z,23.005
2022-09-06T01:59:07.836Z,23.005
2022-09-06T02:00:08.356Z,22.99
2022-09-06T02:01:09.016Z,22.99
2022-09-06T02:02:08.892Z,22.975
2022-09-06T02:03:09.319Z,22.965
2022-09-06T02:04:09.911Z,22.965
2022-09-06T02:05:08.090Z,22.96
2022-09-06T02:06:08.770Z,22.98
2022-09-06T02:07:09.280Z,22.98
2022-09-06T02:08:08.511Z,22.945
2022-09-06T02:09:10.244Z,22.965
2022-09-06T02:10:09.446Z,22.935
2022-09-06T02:11:09.271Z,22.92
2022-09-06T02:12:08.079Z,22.905
2022-09-06T02:13:09.476Z,22.9
2022-09-06T02:14:10.094Z,22.915
2022-09-06T02:15:08.490Z,22.895
2022-09-06T02:16:09.048Z,22.88
2022-09-06T02:17:11.561Z,22.845
2022-09-06T02:18:09.208Z,22.839
2022-09-06T02:19:09.098Z,22.805
2022-09-06T02:20:12.026Z,22.8
2022-09-06T02:21:12.002Z,22.795
2022-09-06T02:22:09.403Z,22.79
2022-09-06T02:23:12.059Z,22.8
2022-09-06T02:24:09.562Z,22.833
2022-09-06T02:25:09.038Z,22.833
2022-09-06T02:26:09.248Z,22.827
2022-09-06T02:27:09.566Z,22.839
2022-09-06T02:28:09.145Z,22.8216
2022-09-06T02:29:10.692Z,22.8108
2022-09-06T02:30:08.104Z,22.785
2022-09-06T02:31:09.349Z,22.755
2022-09-06T02:32:08.452Z,22.725
2022-09-06T02:33:08.995Z,22.694
2022-09-06T02:34:08.658Z,22.654
2022-09-06T02:35:08.891Z,22.655
2022-09-06T02:36:08.901Z,22.69
2022-09-06T02:37:09.016Z,22.672
2022-09-06T02:38:08.517Z,22.672
2022-09-06T02:39:08.186Z,22.688
2022-09-06T02:40:09.088Z,22.695
2022-09-06T02:41:11.735Z,22.715
2022-09-06T02:42:09.209Z,22.735
2022-09-06T02:43:09.157Z,22.76
2022-09-06T02:44:07.599Z,22.77
2022-09-06T02:45:09.181Z,22.76
2022-09-06T02:46:08.968Z,22.775
2022-09-06T02:47:09.399Z,22.79
2022-09-06T02:48:08.279Z,22.79
2022-09-06T02:49:07.836Z,22.78
2022-09-06T02:50:09.675Z,22.785
2022-09-06T02:51:08.876Z,22.76
2022-09-06T02:52:09.001Z,22.775
2022-09-06T02:53:11.588Z,22.775
2022-09-06T02:54:07.661Z,22.79
2022-09-06T02:55:09.202Z,22.8
2022-09-06T02:56:08.785Z,22.8
2022-09-06T02:57:08.806Z,22.8158
2022-09-06T02:58:09.421Z,22.862
2022-09-06T02:59:08.065Z,22.845
2022-09-06T03:00:08.967Z,22.862
2022-09-06T03:01:09.177Z,22.856
2022-09-06T03:02:11.773Z,22.88
2022-09-06T03:03:09.374Z,22.862
2022-09-06T03:04:09.150Z,22.85
2022-09-06T03:05:08.487Z,22.845
2022-09-06T03:06:10.028Z,22.8216
2022-09-06T03:07:09.130Z,22.81
2022-09-06T03:08:11.719Z,22.805
2022-09-06T03:09:08.135Z,22.8216
2022-09-06T03:10:08.137Z,22.799
2022-09-06T03:11:09.002Z,22.7915
2022-09-06T03:12:08.945Z,22.7936
2022-09-06T03:13:08.800Z,22.795
2022-09-06T03:14:09.658Z,22.805
2022-09-06T03:15:08.645Z,22.81
2022-09-06T03:16:09.151Z,22.789
2022-09-06T03:17:09.956Z,22.7961
2022-09-06T03:18:09.443Z,22.8
2022-09-06T03:19:08.291Z,22.81
2022-09-06T03:20:09.380Z,22.7961
2022-09-06T03:21:12.232Z,22.8
2022-09-06T03:22:09.596Z,22.79
2022-09-06T03:23:09.296Z,22.765
2022-09-06T03:24:07.526Z,22.785
2022-09-06T03:25:09.196Z,22.79
2022-09-06T03:26:11.803Z,22.775
2022-09-06T03:27:11.961Z,22.76
2022-09-06T03:28:09.044Z,22.76
2022-09-06T03:29:08.174Z,22.735
2022-09-06T03:30:13.057Z,22.705
2022-09-06T03:31:09.046Z,22.72
2022-09-06T03:32:08.890Z,22.695
2022-09-06T03:33:11.280Z,22.695
2022-09-06T03:34:11.137Z,22.655
2022-09-06T03:35:08.621Z,22.626
2022-09-06T03:36:12.223Z,22.6
2022-09-06T03:37:09.031Z,22.595
2022-09-06T03:38:11.974Z,22.555
2022-09-06T03:39:07.905Z,22.55
2022-09-06T03:40:08.344Z,22.535
2022-09-06T03:41:09.371Z,22.505
2022-09-06T03:42:09.013Z,22.485
2022-09-06T03:43:08.780Z,22.475
2022-09-06T03:44:08.537Z,22.485
2022-09-06T03:45:08.631Z,22.45
2022-09-06T03:46:11.783Z,22.44
2022-09-06T03:47:07.809Z,22.43
2022-09-06T03:48:09.241Z,22.435
2022-09-06T03:49:07.890Z,22.425
2022-09-06T03:50:09.091Z,22.43
2022-09-06T03:51:08.779Z,22.42
2022-09-06T03:52:09.138Z,22.42
2022-09-06T03:53:10.474Z,22.425
2022-09-06T03:54:11.230Z,22.41
2022-09-06T03:55:09.878Z,22.42
2022-09-06T03:56:09.068Z,22.41
2022-09-06T03:57:09.515Z,22.385
2022-09-06T03:58:09.421Z,22.3791
2022-09-06T03:59:08.270Z,22.3683
2022-09-06T04:00:09.855Z,22.333
2022-09-06T04:01:09.865Z,22.3216
2022-09-06T04:02:09.201Z,22.333
2022-09-06T04:03:09.526Z,22.35
2022-09-06T04:04:07.983Z,22.3158
2022-09-06T04:05:08.810Z,22.327
2022-09-06T04:06:08.867Z,22.3108
2022-09-06T04:07:08.577Z,22.275
2022-09-06T04:08:08.827Z,22.255
2022-09-06T04:09:07.833Z,22.255
2022-09-06T04:10:09.058Z,22.24
2022-09-06T04:11:09.515Z,22.245
2022-09-06T04:12:10.980Z,22.245
2022-09-06T04:13:09.434Z,22.205
2022-09-06T04:14:07.628Z,22.194
2022-09-06T04:15:08.756Z,22.1783
2022-09-06T04:16:09.332Z,22.149
2022-09-06T04:17:08.220Z,22.1208
2022-09-06T04:18:09.687Z,22.085
2022-09-06T04:19:08.316Z,22.06
2022-09-06T04:20:09.019Z,22.03
2022-09-06T04:21:09.382Z,22.02
2022-09-06T04:22:08.602Z,22.005
2022-09-06T04:23:10.391Z,21.985
2022-09-06T04:24:08.858Z,21.975
2022-09-06T04:25:11.275Z,21.97
2022-09-06T04:26:08.628Z,21.97
2022-09-06T04:27:09.512Z,21.955
2022-09-06T04:28:09.184Z,21.955
2022-09-06T04:29:07.583Z,21.92
2022-09-06T04:30:08.961Z,21.915
2022-09-06T04:31:10.281Z,21.8741
2022-09-06T04:32:12.539Z,21.845
2022-09-06T04:33:09.819Z,21.805
2022-09-06T04:34:08.104Z,21.775
2022-09-06T04:35:08.470Z,21.75
2022-09-06T04:36:09.094Z,21.715
2022-09-06T04:37:08.229Z,21.71
2022-09-06T04:38:08.802Z,21.7
2022-09-06T04:39:09.183Z,21.672
2022-09-06T04:40:08.855Z,21.66
2022-09-06T04:41:08.435Z,21.664
2022-09-06T04:42:08.727Z,21.663
2022-09-06T04:43:51.567Z,21.6637
2022-09-06T04:44:09.496Z,21.6433
2022-09-06T04:45:08.488Z,21.615
2022-09-06T04:46:08.430Z,21.62
2022-09-06T04:47:09.612Z,21.62
2022-09-06T04:48:09.180Z,21.62
2022-09-06T04:49:08.176Z,21.6258
2022-09-06T04:50:08.804Z,21.6316
2022-09-06T04:51:09.778Z,21.6258
2022-09-06T04:52:08.962Z,21.6258
2022-09-06T04:53:09.146Z,21.615
2022-09-06T04:54:08.181Z,21.6208
2022-09-06T04:55:08.084Z,21.61
2022-09-06T04:56:09.281Z,21.59
2022-09-06T04:57:11.217Z,21.585
2022-09-06T04:58:10.811Z,21.575
2022-09-06T04:59:07.974Z,21.565
2022-09-06T05:00:07.861Z,21.555
2022-09-06T05:01:09.715Z,21.545
2022-09-06T05:02:08.579Z,21.54
2022-09-06T05:03:09.546Z,21.525
2022-09-06T05:04:08.277Z,21.52
2022-09-06T05:05:08.131Z,21.505
2022-09-06T05:06:08.906Z,21.5
2022-09-06T05:07:08.258Z,21.495
2022-09-06T05:08:11.820Z,21.495
2022-09-06T05:09:08.294Z,21.5
2022-09-06T05:10:08.933Z,21.495
2022-09-06T05:11:08.980Z,21.495
2022-09-06T05:12:08.953Z,21.505
2022-09-06T05:13:09.308Z,21.515
2022-09-06T05:14:09.854Z,21.51
2022-09-06T05:15:11.943Z,21.52
2022-09-06T05:16:08.807Z,21.525
2022-09-06T05:17:12.108Z,21.5
2022-09-06T05:18:12.843Z,21.48
2022-09-06T05:19:08.575Z,21.475
2022-09-06T05:20:09.203Z,21.445
2022-09-06T05:21:09.037Z,21.435
2022-09-06T05:22:08.472Z,21.42
2022-09-06T05:23:09.087Z,21.405
2022-09-06T05:24:07.984Z,21.41
2022-09-06T05:25:10.445Z,21.405
2022-09-06T05:26:08.929Z,21.415
2022-09-06T05:27:09.253Z,21.415
2022-09-06T05:28:11.920Z,21.42
2022-09-06T05:29:08.406Z,21.415
2022-09-06T05:30:08.674Z,21.44
2022-09-06T05:31:09.415Z,21.45
2022-09-06T05:32:09.238Z,21.455
2022-09-06T05:33:09.167Z,21.45
2022-09-06T05:34:10.696Z,21.465
2022-09-06T05:35:09.115Z,21.465
2022-09-06T05:36:09.233Z,21.48
2022-09-06T05:37:09.171Z,21.48
2022-09-06T05:38:09.425Z,21.505
2022-09-06T05:39:08.798Z,21.495
2022-09-06T05:40:08.849Z,21.51
2022-09-06T05:41:12.663Z,21.5
2022-09-06T05:42:08.526Z,21.5054
2022-09-06T05:43:12.194Z,21.527
2022-09-06T05:44:08.327Z,21.521
2022-09-06T05:45:09.194Z,21.509
2022-09-06T05:46:09.192Z,21.5218
2022-09-06T05:47:08.542Z,21.54
2022-09-06T05:48:10.031Z,21.52
2022-09-06T05:49:10.216Z,21.53
2022-09-06T05:50:09.582Z,21.5138
2022-09-06T05:51:09.169Z,21.5436
2022-09-06T05:52:08.824Z,21.545
2022-09-06T05:53:09.405Z,21.545
2022-09-06T05:54:08.289Z,21.55
2022-09-06T05:55:12.119Z,21.55
2022-09-06T05:56:09.139Z,21.545
2022-09-06T05:57:09.481Z,21.555
2022-09-06T05:58:11.840Z,21.575
2022-09-06T05:59:08.282Z,21.56
2022-09-06T06:00:09.589Z,21.57
2022-09-06T06:01:09.158Z,21.59
2022-09-06T06:02:12.210Z,21.62
2022-09-06T06:03:08.750Z,21.6316
2022-09-06T06:04:07.909Z,21.666
2022-09-06T06:05:09.740Z,21.672
2022-09-06T06:06:08.204Z,21.69
2022-09-06T06:07:09.431Z,21.666
2022-09-06T06:08:08.921Z,21.6783
2022-09-06T06:09:08.009Z,21.6841
2022-09-06T06:10:09.323Z,21.688
2022-09-06T06:11:11.925Z,21.69
2022-09-06T06:12:08.798Z,21.666
2022-09-06T06:13:10.873Z,21.66
2022-09-06T06:14:09.466Z,21.671
2022-09-06T06:15:09.052Z,21.695
2022-09-06T06:16:09.594Z,21.725
2022-09-06T06:17:08.976Z,21.735
2022-09-06T06:18:08.389Z,21.745
2022-09-06T06:19:09.165Z,21.775
2022-09-06T06:20:08.613Z,21.795
2022-09-06T06:21:09.817Z,21.78
2022-09-06T06:22:08.998Z,21.839
2022-09-06T06:23:08.695Z,21.8216
2022-09-06T06:24:08.750Z,21.8216
2022-09-06T06:25:12.720Z,21.8158
2022-09-06T06:26:09.396Z,21.839
2022-09-06T06:27:08.315Z,21.8216
2022-09-06T06:28:08.694Z,21.85
2022-09-06T06:29:08.294Z,21.885
2022-09-06T06:30:15.280Z,21.9
2022-09-06T06:31:10.953Z,21.93
2022-09-06T06:32:09.418Z,21.97
2022-09-06T06:33:09.265Z,22.015
2022-09-06T06:34:07.747Z,22.05
2022-09-06T06:35:09.196Z,22.095
2022-09-06T06:36:08.602Z,22.16
2022-09-06T06:37:08.997Z,22.215
2022-09-06T06:38:09.409Z,22.245
2022-09-06T06:39:08.105Z,22.29
2022-09-06T06:40:11.798Z,22.339
2022-09-06T06:41:08.814Z,22.3791
2022-09-06T06:42:09.382Z,22.415
2022-09-06T06:43:08.843Z,22.43
2022-09-06T06:44:08.051Z,22.455
2022-09-06T06:45:09.494Z,22.47
2022-09-06T06:46:09.072Z,22.49
2022-09-06T06:47:08.576Z,22.49
2022-09-06T06:48:09.060Z,22.505
2022-09-06T06:49:10.558Z,22.535
2022-09-06T06:50:12.130Z,22.56
2022-09-06T06:51:09.620Z,22.58
2022-09-06T06:52:08.846Z,22.595
2022-09-06T06:53:09.454Z,22.6258
2022-09-06T06:54:10.146Z,22.66
2022-09-06T06:55:09.353Z,22.6891
2022-09-06T06:56:07.982Z,22.695
2022-09-06T06:57:09.385Z,22.725
2022-09-06T06:58:08.926Z,22.765
2022-09-06T06:59:07.814Z,22.79
2022-09-06T07:00:10.858Z,22.816
2022-09-06T07:01:12.484Z,22.8683
2022-09-06T07:02:08.701Z,22.89
2022-09-06T07:03:08.460Z,22.91
2022-09-06T07:04:08.184Z,22.94
2022-09-06T07:06:16.109Z,22.99
2022-09-06T07:07:37.866Z,23.035
2022-09-06T07:08:12.507Z,23.06
2022-09-06T07:09:08.575Z,23.085
2022-09-06T07:10:34.363Z,23.1316
2022-09-06T07:11:08.779Z,23.182
2022-09-06T07:12:09.373Z,23.268
2022-09-06T07:13:08.910Z,23.3108
2022-09-06T07:14:11.416Z,23.305
2022-09-06T07:15:08.977Z,23.3109
2022-09-06T07:16:09.358Z,23.326
2022-09-06T07:17:09.427Z,23.395
2022-09-06T07:18:08.148Z,23.475
2022-09-06T07:20:19.999Z,23.57
2022-09-06T07:21:37.674Z,23.555
2022-09-06T07:22:11.740Z,23.59
2022-09-06T07:24:11.830Z,23.687
2022-09-06T07:25:09.244Z,23.765
2022-09-06T07:26:08.911Z,23.856
2022-09-06T07:28:12.365Z,23.862
2022-09-06T07:29:08.429Z,23.955
2022-09-06T07:30:08.921Z,24
2022-09-06T07:32:16.909Z,24.06
2022-09-06T07:33:09.602Z,24.06
2022-09-06T07:34:10.607Z,24.115
2022-09-06T07:35:09.447Z,24.171
2022-09-06T07:36:08.778Z,24.23
2022-09-06T07:37:08.741Z,24.1841
2022-09-06T07:38:09.575Z,24.16
2022-09-06T07:39:08.572Z,24.16
2022-09-06T07:40:09.020Z,24.166
2022-09-06T07:41:09.548Z,24.1783
2022-09-06T07:42:08.897Z,24.225
2022-09-06T07:43:09.840Z,24.275
2022-09-06T07:44:09.461Z,24.316
2022-09-06T07:45:12.219Z,24.356
2022-09-06T07:46:09.636Z,24.415
2022-09-06T07:48:09.526Z,24.51
2022-09-06T07:49:07.981Z,24.595
2022-09-06T07:51:09.826Z,24.775
2022-09-06T07:53:29.047Z,24.856
2022-09-06T07:54:30.040Z,24.805
2022-09-06T07:55:08.942Z,24.833
2022-09-06T07:56:09.419Z,24.909
2022-09-06T07:57:09.034Z,24.945
2022-09-06T07:58:08.788Z,24.955
2022-09-06T07:59:12.509Z,25.025
2022-09-06T08:00:08.719Z,25.06
2022-09-06T08:01:09.502Z,25.137
2022-09-06T08:02:09.649Z,25.194
2022-09-06T08:03:09.266Z,25.25
2022-09-06T08:04:08.014Z,25.295
2022-09-06T08:06:15.273Z,25.43
2022-09-06T08:07:38.690Z,25.42
2022-09-06T08:09:08.132Z,25.405
2022-09-06T08:10:13.952Z,25.4
2022-09-06T08:11:08.645Z,25.425
2022-09-06T08:12:09.434Z,25.43
2022-09-06T08:13:09.240Z,25.525
2022-09-06T08:14:09.932Z,25.59
2022-09-06T08:15:09.190Z,25.649
2022-09-06T08:16:09.543Z,25.644
2022-09-06T08:17:11.772Z,25.6316
2022-09-06T08:18:09.112Z,25.655
2022-09-06T08:19:08.626Z,25.745
2022-09-06T08:20:08.660Z,25.785
2022-09-06T08:21:12.386Z,25.827
2022-09-06T08:22:11.993Z,25.89
2022-09-06T08:23:11.984Z,25.96
2022-09-06T08:24:08.545Z,26.035
2022-09-06T08:25:09.048Z,26.1
2022-09-06T08:26:09.411Z,26.182
2022-09-06T08:27:12.207Z,26.28
2022-09-06T08:28:09.378Z,26.301
2022-09-06T08:29:07.969Z,26.4
2022-09-06T08:30:11.188Z,26.405
2022-09-06T08:31:08.807Z,26.415
2022-09-06T08:32:09.646Z,26.47
2022-09-06T08:33:09.131Z,26.54
2022-09-06T08:34:09.839Z,26.54
2022-09-06T08:35:09.808Z,26.585
2022-09-06T08:36:08.434Z,26.665
2022-09-06T08:37:09.519Z,26.76
2022-09-06T08:38:11.750Z,26.85
2022-09-06T08:39:08.562Z,26.839
2022-09-06T08:40:08.703Z,26.935
2022-09-06T08:41:09.734Z,27
2022-09-06T08:42:09.136Z,26.975
2022-09-06T08:43:08.896Z,26.995
2022-09-06T08:45:08.998Z,27.005
2022-09-06T08:46:08.898Z,27.0327
2022-09-06T08:47:09.352Z,27.0553
2022-09-06T08:48:08.878Z,27.133
2022-09-06T08:49:08.101Z,27.137
2022-09-06T08:50:12.377Z,27.168
2022-09-06T08:51:09.653Z,27.1783
2022-09-06T08:52:09.594Z,27.2227
2022-09-06T08:53:17.669Z,27.235
2022-09-06T08:54:08.446Z,27.316
2022-09-06T08:55:09.219Z,27.4072
2022-09-06T08:56:08.601Z,27.42
2022-09-06T08:57:09.647Z,27.465
2022-09-06T08:58:08.658Z,27.49
2022-09-06T08:59:07.549Z,27.515
2022-09-06T09:00:11.097Z,27.575
2022-09-06T09:01:09.138Z,27.644
2022-09-06T09:02:09.019Z,27.705
2022-09-06T09:03:13.202Z,27.704
2022-09-06T09:04:08.667Z,27.75
2022-09-06T09:05:08.711Z,27.805
2022-09-06T09:06:08.975Z,27.9
2022-09-06T09:07:11.528Z,27.94
2022-09-06T09:08:08.987Z,27.975
2022-09-06T09:09:08.105Z,28.04
2022-09-06T09:10:09.762Z,28.138
2022-09-06T09:11:09.383Z,28.24
2022-09-06T09:12:08.607Z,28.27
2022-09-06T09:13:09.687Z,28.295
2022-09-06T09:14:10.011Z,28.3108
2022-09-06T09:15:09.213Z,28.383
2022-09-06T09:16:08.793Z,28.46
2022-09-06T09:17:09.822Z,28.545
2022-09-06T09:18:11.786Z,28.643
2022-09-06T09:19:08.462Z,28.69
2022-09-06T09:20:08.648Z,28.73
2022-09-06T09:21:08.986Z,28.839
2022-09-06T09:22:09.213Z,28.9
2022-09-06T09:23:08.753Z,28.94
2022-09-06T09:24:07.731Z,28.985
2022-09-06T09:25:08.878Z,29.06
2022-09-06T09:26:08.547Z,29.121
2022-09-06T09:27:12.087Z,29.177
2022-09-06T09:28:08.153Z,29.26
2022-09-06T09:29:08.545Z,29.305
2022-09-06T09:31:09.039Z,29.44
2022-09-06T09:32:09.286Z,29.46
2022-09-06T09:33:09.176Z,29.525
2022-09-06T09:34:07.890Z,29.58
2022-09-06T09:35:09.075Z,29.637
2022-09-06T09:36:11.490Z,29.699
2022-09-06T09:38:11.973Z,29.8
2022-09-06T09:39:08.550Z,29.85
2022-09-06T09:40:08.689Z,29.893
2022-09-06T09:41:09.806Z,29.955
2022-09-06T09:42:09.370Z,30.01
2022-09-06T09:43:08.810Z,30.06
2022-09-06T09:44:10.540Z,30.1
2022-09-06T09:45:11.717Z,30.166
2022-09-06T09:46:08.748Z,30.22
2022-09-06T09:47:09.753Z,30.275
2022-09-06T09:48:11.623Z,30.35
2022-09-06T09:49:07.867Z,30.3683
2022-09-06T09:50:07.785Z,30.405
2022-09-06T09:51:09.215Z,30.455
2022-09-06T09:52:09.105Z,30.5
2022-09-06T09:53:08.914Z,30.51
2022-09-06T09:54:10.437Z,30.545
2022-09-06T09:55:08.649Z,30.58
2022-09-06T09:56:09.133Z,30.605
2022-09-06T09:57:11.730Z,30.595
2022-09-06T09:58:12.507Z,30.605
2022-09-06T09:59:07.952Z,30.6316
2022-09-06T10:00:08.940Z,30.687
2022-09-06T10:01:08.783Z,30.73
2022-09-06T10:02:08.439Z,30.811
2022-09-06T10:03:09.173Z,30.827
2022-09-06T10:05:09.390Z,30.805
2022-09-06T10:07:14.881Z,30.845
2022-09-06T10:08:09.529Z,30.9
2022-09-06T10:09:08.769Z,30.98
2022-09-06T10:10:08.909Z,31.025
2022-09-06T10:11:09.369Z,31.035
2022-09-06T10:12:09.061Z,31.04
2022-09-06T10:13:08.809Z,31.09
2022-09-06T10:14:08.593Z,31.127
2022-09-06T10:15:08.827Z,31.1783
2022-09-06T10:16:08.938Z,31.1954
2022-09-06T10:17:12.426Z,31.226
2022-09-06T10:18:08.700Z,31.2772
2022-09-06T10:19:08.033Z,31.341
2022-09-06T10:20:08.416Z,31.354
2022-09-06T10:21:09.790Z,31.363
2022-09-06T10:22:09.176Z,31.372
2022-09-06T10:23:08.921Z,31.39
2022-09-06T10:24:31.890Z,31.4215
2022-09-06T10:25:08.823Z,31.4509
2022-09-06T10:26:12.427Z,31.485
2022-09-06T10:27:09.719Z,31.5461
2022-09-06T10:28:11.295Z,31.5981
2022-09-06T10:29:07.718Z,31.6783
2022-09-06T10:30:09.340Z,31.73
2022-09-06T10:31:09.158Z,31.824
2022-09-06T10:32:08.797Z,31.94
2022-09-06T10:33:09.650Z,31.99
2022-09-06T10:34:08.742Z,32
2022-09-06T10:35:08.995Z,32.04
2022-09-06T10:36:11.666Z,32.085
2022-09-06T10:37:08.926Z,32.1258
2022-09-06T10:38:09.157Z,32.2
2022-09-06T10:39:08.035Z,32.245
2022-09-06T10:40:15.283Z,32.305
2022-09-06T10:41:08.888Z,32.3216
2022-09-06T10:42:09.143Z,32.362
2022-09-06T10:43:09.613Z,32.4
2022-09-06T10:44:07.759Z,32.435
2022-09-06T10:45:09.543Z,32.45
2022-09-06T10:46:09.087Z,32.445
2022-09-06T10:47:12.025Z,32.415
2022-09-06T10:48:14.556Z,32.465
2022-09-06T10:49:07.772Z,32.51
2022-09-06T10:50:09.767Z,32.45
2022-09-06T10:51:08.862Z,32.47
2022-09-06T10:52:08.378Z,32.42
2022-09-06T10:53:09.538Z,32.394
2022-09-06T10:54:07.995Z,32.4
2022-09-06T10:55:09.931Z,32.339
2022-09-06T10:56:09.298Z,32.327
2022-09-06T10:57:09.338Z,32.29
2022-09-06T10:58:28.709Z,32.265
2022-09-06T10:59:40.529Z,32.22
2022-09-06T11:00:09.252Z,32.22
2022-09-06T11:01:09.422Z,32.23
2022-09-06T11:02:10.190Z,32.195
2022-09-06T11:04:12.493Z,32.215
2022-09-06T11:06:09.497Z,32.322
2022-09-06T11:07:12.217Z,32.388
2022-09-06T11:09:08.229Z,32.525
2022-09-06T11:10:09.772Z,32.51
2022-09-06T11:11:09.047Z,32.505
2022-09-06T11:12:08.741Z,32.525
2022-09-06T11:13:12.561Z,32.56
2022-09-06T11:14:08.719Z,32.58
2022-09-06T11:15:09.576Z,32.622
2022-09-06T11:16:08.497Z,32.745
2022-09-06T11:17:09.604Z,32.833
2022-09-06T11:18:09.293Z,32.811
2022-09-06T11:19:08.056Z,32.765
2022-09-06T11:20:09.616Z,32.8
2022-09-06T11:21:09.102Z,32.884
2022-09-06T11:22:08.659Z,32.945
2022-09-06T11:23:09.577Z,33.02
2022-09-06T11:24:10.742Z,33.085
2022-09-06T11:25:08.847Z,33.148
2022-09-06T11:26:09.007Z,33.27
2022-09-06T11:27:08.935Z,33.3158
2022-09-06T11:28:12.346Z,33.327
2022-09-06T11:29:08.248Z,33.26
2022-09-06T11:30:09.405Z,33.235
2022-09-06T11:31:08.925Z,33.275
2022-09-06T11:32:19.373Z,33.275
2022-09-06T11:33:09.807Z,33.27
2022-09-06T11:34:08.159Z,33.3158
2022-09-06T11:35:09.068Z,33.3158
2022-09-06T11:36:08.206Z,33.327
2022-09-06T11:37:12.141Z,33.367
2022-09-06T11:38:09.453Z,33.405
2022-09-06T11:39:08.262Z,33.43
2022-09-06T11:41:16.550Z,33.43
2022-09-06T11:42:14.453Z,33.3791
2022-09-06T11:43:08.759Z,33.296
2022-09-06T11:44:08.809Z,33.204
2022-09-06T11:45:12.556Z,33.132
2022-09-06T11:46:13.495Z,33.1
2022-09-06T11:47:08.940Z,33.076
2022-09-06T11:48:08.897Z,33.0646
2022-09-06T11:49:08.249Z,33.045
2022-09-06T11:50:08.366Z,33.01
2022-09-06T11:51:09.356Z,32.963
2022-09-06T11:52:08.971Z,32.9454
2022-09-06T11:53:09.220Z,32.93
2022-09-06T11:54:08.096Z,32.916
2022-09-06T11:55:12.670Z,32.94
2022-09-06T11:56:09.048Z,32.94
2022-09-06T11:57:08.877Z,32.97
2022-09-06T11:58:09.350Z,32.967
2022-09-06T11:59:08.222Z,33.0272
2022-09-06T12:00:09.126Z,33.03
2022-09-06T12:01:11.013Z,33.045
2022-09-06T12:02:09.326Z,33.02
2022-09-06T12:04:07.058Z,33.045
2022-09-06T12:04:12.006Z,33.05
2022-09-06T12:05:10.040Z,33.035
2022-09-06T12:06:09.782Z,33.055
2022-09-06T12:07:09.427Z,33.095
2022-09-06T12:08:09.135Z,33.165
2022-09-06T12:09:08.617Z,33.26
2022-09-06T12:10:08.846Z,33.327
2022-09-06T12:11:09.347Z,33.345
2022-09-06T12:12:12.366Z,33.29
2022-09-06T12:13:09.129Z,33.285
2022-09-06T12:14:08.705Z,33.344
2022-09-06T12:15:09.312Z,33.404
2022-09-06T12:16:11.921Z,33.45
2022-09-06T12:17:12.434Z,33.485
2022-09-06T12:18:09.334Z,33.505
2022-09-06T12:19:08.511Z,33.5
2022-09-06T12:20:09.104Z,33.52
2022-09-06T12:21:09.303Z,33.58
2022-09-06T12:22:12.412Z,33.638
2022-09-06T12:23:08.850Z,33.74
2022-09-06T12:24:08.774Z,33.735
2022-09-06T12:25:08.119Z,33.7
2022-09-06T12:26:09.325Z,33.73
2022-09-06T12:27:09.434Z,33.75
2022-09-06T12:28:09.099Z,33.806
2022-09-06T12:29:08.525Z,33.78
2022-09-06T12:30:11.563Z,33.75
2022-09-06T12:31:18.028Z,33.79
2022-09-06T12:32:09.005Z,33.765
2022-09-06T12:33:08.921Z,33.75
2022-09-06T12:34:08.349Z,33.74
2022-09-06T12:36:12.238Z,33.77
2022-09-06T12:37:08.731Z,33.8108
2022-09-06T12:38:09.754Z,33.833
2022-09-06T12:39:08.471Z,33.856
2022-09-06T12:40:08.633Z,33.76
2022-09-06T12:41:09.617Z,33.725
2022-09-06T12:42:08.562Z,33.715
2022-09-06T12:43:08.852Z,33.765
2022-09-06T12:44:10.310Z,33.78
2022-09-06T12:45:11.830Z,33.715
2022-09-06T12:46:11.858Z,33.649
2022-09-06T12:47:08.902Z,33.692
2022-09-06T12:48:08.735Z,33.72
2022-09-06T12:49:08.004Z,33.694
2022-09-06T12:50:08.628Z,33.666
2022-09-06T12:51:11.836Z,33.66
2022-09-06T12:52:08.144Z,33.655
2022-09-06T12:53:09.284Z,33.637
2022-09-06T12:54:07.996Z,33.643
2022-09-06T12:55:09.684Z,33.61